createdAt,value
2023-05-19T00:02:33.564Z,98619.56
2023-05-19T00:07:38.931Z,98616.97
2023-05-19T00:12:41.621Z,98617.78
2023-05-19T00:17:43.360Z,98623.41
2023-05-19T00:22:45.167Z,98607.31
2023-05-19T00:27:46.829Z,98601.75
2023-05-19T00:32:48.800Z,98604.34
2023-05-19T00:37:50.603Z,98593.81
2023-05-19T00:42:52.340Z,98593.97
2023-05-19T00:47:54.002Z,98591.00
2023-05-19T00:52:56.239Z,98587.22
2023-05-19T00:57:58.038Z,98584.72
2023-05-19T01:02:59.778Z,98582.44
2023-05-19T01:08:01.791Z,98581.75
2023-05-19T01:13:05.172Z,98583.41
2023-05-19T01:18:19.711Z,98577.97
2023-05-19T01:23:40.163Z,98581.91
2023-05-19T01:28:47.437Z,98586.69
2023-05-19T01:33:51.826Z,98584.78
2023-05-19T01:38:57.217Z,98583.69
2023-05-19T01:43:59.406Z,98580.94
2023-05-19T01:49:01.879Z,98583.53
2023-05-19T01:54:03.643Z,98588.88
2023-05-19T01:59:34.707Z,98580.88
2023-05-19T02:04:48.892Z,98579.22
2023-05-19T02:09:53.571Z,98579.53
2023-05-19T02:15:05.141Z,98583.19
2023-05-19T02:20:12.214Z,98574.50
2023-05-19T02:25:14.282Z,98571.78
2023-05-19T02:30:16.067Z,98573.59
2023-05-19T02:35:17.870Z,98572.09
2023-05-19T02:40:19.840Z,98565.44
2023-05-19T02:45:21.584Z,98560.16
2023-05-19T02:50:23.236Z,98551.06
2023-05-19T02:55:24.910Z,98553.88
2023-05-19T03:00:26.569Z,98562.66
2023-05-19T03:05:30.319Z,98557.78
2023-05-19T03:10:32.159Z,98556.56
2023-05-19T03:15:34.356Z,98553.84
2023-05-19T03:20:36.042Z,98552.75
2023-05-19T03:25:37.826Z,98552.34
2023-05-19T03:30:39.677Z,98548.97
2023-05-19T03:35:53.377Z,98545.44
2023-05-19T03:40:55.711Z,98552.66
2023-05-19T03:45:58.081Z,98554.81
2023-05-19T03:51:18.467Z,98554.84
2023-05-19T03:56:25.140Z,98551.16
2023-05-19T04:01:26.857Z,98553.31
2023-05-19T04:06:28.648Z,98551.97
2023-05-19T04:11:30.507Z,98553.72
2023-05-19T04:16:33.344Z,98553.88
2023-05-19T04:21:35.345Z,98556.47
2023-05-19T04:26:38.452Z,98556.47
2023-05-19T04:31:41.212Z,98556.59
2023-05-19T04:36:43.633Z,98570.00
2023-05-19T04:41:45.824Z,98567.19
2023-05-19T04:46:48.600Z,98574.84
2023-05-19T04:51:54.944Z,98574.00
2023-05-19T04:57:01.320Z,98577.69
2023-05-19T05:02:05.875Z,98573.22
2023-05-19T05:07:08.210Z,98562.06
2023-05-19T05:12:10.911Z,98572.69
2023-05-19T05:17:14.890Z,98574.22
2023-05-19T05:22:17.639Z,98565.41
2023-05-19T05:27:19.491Z,98571.03
2023-05-19T05:32:21.597Z,98559.91
2023-05-19T05:37:23.319Z,98566.16
2023-05-19T05:42:26.232Z,98574.03
2023-05-19T05:47:28.991Z,98576.28
2023-05-19T05:52:32.380Z,98582.19
2023-05-19T05:57:36.482Z,98578.66
2023-05-19T06:02:39.921Z,98582.56
2023-05-19T06:07:42.032Z,98582.22
2023-05-19T06:12:45.456Z,98577.19
2023-05-19T06:17:47.428Z,98579.28
2023-05-19T06:22:49.182Z,98576.00
2023-05-19T06:27:53.686Z,98574.66
2023-05-19T06:32:56.759Z,98578.41
2023-05-19T06:37:59.871Z,98578.75
2023-05-19T06:43:01.663Z,98574.97
2023-05-19T06:48:15.723Z,98576.63
2023-05-19T06:53:20.978Z,98574.44
2023-05-19T06:58:22.901Z,98565.53
2023-05-19T07:03:25.184Z,98573.09
2023-05-19T07:08:28.406Z,98566.00
2023-05-19T07:13:31.268Z,98573.22
2023-05-19T07:18:33.093Z,98560.75
2023-05-19T07:23:34.801Z,98575.88
2023-05-19T07:28:38.156Z,98558.81
2023-05-19T07:33:41.390Z,98565.00
2023-05-19T07:38:43.200Z,98559.19
2023-05-19T07:43:44.910Z,98550.69
2023-05-19T07:48:46.603Z,98550.22
2023-05-19T07:53:48.311Z,98541.31
2023-05-19T07:58:50.078Z,98552.91
2023-05-19T08:03:51.961Z,98546.59
2023-05-19T08:08:54.284Z,98541.78
2023-05-19T08:13:56.021Z,98545.72
2023-05-19T08:18:57.799Z,98543.94
2023-05-19T08:23:59.481Z,98537.84
2023-05-19T08:29:01.221Z,98550.09
2023-05-19T08:34:03.506Z,98540.91
2023-05-19T08:39:05.211Z,98542.13
2023-05-19T08:44:06.996Z,98531.63
2023-05-19T08:49:13.278Z,98529.88
2023-05-19T08:54:16.617Z,98536.03
2023-05-19T08:59:19.547Z,98523.84
2023-05-19T09:04:21.314Z,98515.88
2023-05-19T09:09:23.071Z,98514.47
2023-05-19T09:14:24.841Z,98510.66
2023-05-19T09:19:29.272Z,98500.06
2023-05-19T09:24:31.725Z,98494.50
2023-05-19T09:29:33.556Z,98490.81
2023-05-19T09:34:40.025Z,98487.38
2023-05-19T09:39:41.860Z,98491.50
2023-05-19T09:44:43.849Z,98487.59
2023-05-19T09:49:48.563Z,98487.06
2023-05-19T09:54:51.910Z,98481.66
2023-05-19T09:59:56.870Z,98482.44
2023-05-19T10:04:58.677Z,98484.25
2023-05-19T10:10:00.696Z,98465.09
2023-05-19T10:15:02.931Z,98462.94
2023-05-19T10:20:07.127Z,98456.38
2023-05-19T10:25:11.266Z,98453.53
2023-05-19T10:30:42.328Z,98440.75
2023-05-19T10:36:09.037Z,98448.09
2023-05-19T10:41:28.573Z,98445.44
2023-05-19T10:46:30.758Z,98429.97
2023-05-19T10:51:33.516Z,98435.78
2023-05-19T10:56:42.322Z,98429.69
2023-05-19T11:01:44.132Z,98432.16
2023-05-19T11:06:52.103Z,98441.66
2023-05-19T11:11:54.878Z,98431.94
2023-05-19T11:16:57.825Z,98435.84
2023-05-19T11:22:13.463Z,98424.25
2023-05-19T11:27:32.655Z,98422.84
2023-05-19T11:32:38.939Z,98422.31
2023-05-19T11:37:42.604Z,98417.50
2023-05-19T11:42:45.304Z,98398.00
2023-05-19T11:48:01.267Z,98411.13
2023-05-19T11:53:04.276Z,98402.41
2023-05-19T11:58:06.433Z,98407.81
2023-05-19T12:03:09.156Z,98424.75
2023-05-19T12:08:14.584Z,98417.31
2023-05-19T12:13:16.546Z,98417.97
2023-05-19T12:18:19.429Z,98412.28
2023-05-19T12:23:21.310Z,98414.41
2023-05-19T12:28:23.051Z,98409.91
2023-05-19T12:33:25.379Z,98418.72
2023-05-19T12:38:27.115Z,98409.88
2023-05-19T12:43:28.865Z,98401.63
2023-05-19T12:48:30.668Z,98403.16
2023-05-19T12:53:33.162Z,98409.69
2023-05-19T12:58:34.884Z,98403.00
2023-05-19T13:03:43.952Z,98395.16
2023-05-19T13:08:47.279Z,98393.59
2023-05-19T13:13:49.009Z,98403.31
2023-05-19T13:18:51.549Z,98400.91
2023-05-19T13:23:53.432Z,98388.59
2023-05-19T13:28:55.100Z,98388.34
2023-05-19T13:33:56.969Z,98377.91
2023-05-19T13:38:58.903Z,98378.75
2023-05-19T13:44:00.884Z,98378.03
2023-05-19T13:49:02.571Z,98384.84
2023-05-19T13:54:04.874Z,98379.16
2023-05-19T13:59:07.272Z,98373.88
2023-05-19T14:04:11.961Z,98375.25
2023-05-19T14:09:15.977Z,98369.22
2023-05-19T14:14:17.706Z,98372.38
2023-05-19T14:19:19.440Z,98364.16
2023-05-19T14:24:21.246Z,98365.66
2023-05-19T14:29:22.919Z,98362.03
2023-05-19T14:34:24.635Z,98370.03
2023-05-19T14:39:26.440Z,98370.44
2023-05-19T14:44:33.136Z,98376.75
2023-05-19T14:49:34.870Z,98376.81
2023-05-19T14:54:36.677Z,98375.25
2023-05-19T14:59:38.672Z,98373.78
2023-05-19T15:04:40.344Z,98381.72
2023-05-19T15:09:42.044Z,98391.03
2023-05-19T15:14:43.753Z,98395.06
2023-05-19T15:19:45.647Z,98387.25
2023-05-19T15:24:47.436Z,98384.97
2023-05-19T15:29:49.200Z,98395.88
2023-05-19T15:34:50.852Z,98395.41
2023-05-19T15:39:52.594Z,98387.69
2023-05-19T15:44:54.599Z,98395.06
2023-05-19T15:49:56.260Z,98402.56
2023-05-19T15:54:59.140Z,98397.84
2023-05-19T16:00:01.073Z,98388.53
2023-05-19T16:05:22.933Z,98385.94
2023-05-19T16:10:24.575Z,98394.06
2023-05-19T16:15:26.331Z,98382.13
2023-05-19T16:20:30.057Z,98387.38
2023-05-19T16:25:31.758Z,98386.81
2023-05-19T16:30:33.681Z,98382.94
2023-05-19T16:35:36.367Z,98391.56
2023-05-19T16:40:38.201Z,98385.25
2023-05-19T16:45:40.245Z,98381.97
2023-05-19T16:50:41.952Z,98381.84
2023-05-19T16:55:43.633Z,98382.22
2023-05-19T17:00:45.367Z,98377.19
2023-05-19T17:05:47.038Z,98371.50
2023-05-19T17:10:50.015Z,98378.63
2023-05-19T17:15:52.670Z,98390.75
2023-05-19T17:20:56.551Z,98391.13
2023-05-19T17:25:58.469Z,98381.66
2023-05-19T17:31:00.264Z,98390.38
2023-05-19T17:36:03.590Z,98391.19
2023-05-19T17:41:09.709Z,98389.00
2023-05-19T17:46:11.865Z,98402.53
2023-05-19T17:51:13.605Z,98399.34
2023-05-19T17:56:15.371Z,98398.44
2023-05-19T18:01:18.149Z,98403.19
2023-05-19T18:06:20.608Z,98412.06
2023-05-19T18:11:22.716Z,98413.09
2023-05-19T18:16:25.590Z,98417.53
2023-05-19T18:21:27.420Z,98407.69
2023-05-19T18:26:29.068Z,98407.75
2023-05-19T18:31:30.819Z,98406.66
2023-05-19T18:36:32.624Z,98400.34
2023-05-19T18:41:34.402Z,98407.94
2023-05-19T18:46:36.105Z,98408.00
2023-05-19T18:51:37.872Z,98420.31
2023-05-19T18:56:39.590Z,98422.50
2023-05-19T19:01:41.458Z,98418.44
2023-05-19T19:06:43.979Z,98416.16
2023-05-19T19:11:45.829Z,98421.63
2023-05-19T19:16:47.581Z,98420.53
2023-05-19T19:21:49.408Z,98427.47
2023-05-19T19:26:51.282Z,98435.56
2023-05-19T19:31:52.998Z,98437.69
2023-05-19T19:36:54.696Z,98442.28
2023-05-19T19:41:56.385Z,98436.31
2023-05-19T19:46:59.598Z,98435.72
2023-05-19T19:52:01.542Z,98424.63
2023-05-19T19:57:04.045Z,98443.94
2023-05-19T20:02:05.819Z,98431.88
2023-05-19T20:07:07.619Z,98433.03
2023-05-19T20:12:09.353Z,98440.38
2023-05-19T20:17:11.022Z,98443.03
2023-05-19T20:22:12.846Z,98445.81
2023-05-19T20:27:14.486Z,98448.25
2023-05-19T20:32:16.158Z,98445.53
2023-05-19T20:37:17.923Z,98443.09
2023-05-19T20:42:19.593Z,98445.72
2023-05-19T20:47:21.454Z,98442.44
2023-05-19T20:52:23.171Z,98438.69
2023-05-19T20:57:26.132Z,98433.19
2023-05-19T21:02:30.040Z,98430.59
2023-05-19T21:07:31.789Z,98432.06
2023-05-19T21:12:34.410Z,98437.59
2023-05-19T21:17:36.240Z,98426.53
2023-05-19T21:22:37.918Z,98434.41
2023-05-19T21:27:40.559Z,98433.75
2023-05-19T21:32:42.377Z,98434.09
2023-05-19T21:37:44.117Z,98431.81
2023-05-19T21:42:46.092Z,98425.16
2023-05-19T21:47:47.827Z,98421.72
2023-05-19T21:52:49.499Z,98428.25
2023-05-19T21:57:51.181Z,98425.16
2023-05-19T22:02:53.011Z,98432.19
2023-05-19T22:07:54.707Z,98432.19
2023-05-19T22:12:57.468Z,98438.56
2023-05-19T22:17:59.219Z,98432.69
2023-05-19T22:23:01.428Z,98425.03
2023-05-19T22:28:03.130Z,98424.72
2023-05-19T22:33:04.943Z,98430.09
2023-05-19T22:38:08.880Z,98426.53
2023-05-19T22:43:12.224Z,98427.84
2023-05-19T22:48:13.887Z,98430.75
2023-05-19T22:53:16.678Z,98439.75
2023-05-19T22:58:18.323Z,98442.50
2023-05-19T23:03:19.986Z,98438.59
2023-05-19T23:08:21.625Z,98433.56
2023-05-19T23:13:23.297Z,98435.53
2023-05-19T23:18:24.962Z,98446.75
2023-05-19T23:23:27.658Z,98444.00
2023-05-19T23:28:30.432Z,98429.34
2023-05-19T23:33:32.295Z,98427.72
2023-05-19T23:38:34.732Z,98428.53
2023-05-19T23:43:37.796Z,98418.75
2023-05-19T23:48:39.632Z,98420.72
2023-05-19T23:53:41.290Z,98416.84
2023-05-19T23:58:42.956Z,98425.28
